Aérodrome :
LOGIN :

S'inscrire | Disclaimer

   EN    FR    IT 

 










Légende :    VFR   VFR Marginal   IFR   IFR Intensif   IFR Très Intensif
Visi : 
Plafond : 
>= 8 km
>= 3000ft
5 à 8 km
1000 à 3000 ft
1500m à 5 km
500 à 1000 ft
800 à 1500m
200 à 500 ft
< 800m
< 200 ft
Symboles :   Orages  Brouillard  Fortes neiges  Fortes précipitations  Vent > 20 kt
SIGMETs :   Divers  Orages  Givrage  Turbulence  Onde Orograph.  Cendres Volcan.







- Altitude de l'aérodrome : 184 ft
- Code IATA : BRU


EBBR - Bruxelles

DERNIER METAR :
  • 201120Z 07006KT 030V100 8000 FEW028 19/08 Q1022 NOSIG

METARs EXPIRÉS :
  • 201050Z 05006KT 350V080 8000 FEW028 18/09 Q1022 NOSIG
  • 201020Z 01004KT 330V050 8000 FEW028 17/10 Q1023 NOSIG
  • 200950Z 05004KT 340V120 7000 FEW020 16/09 Q1023 NOSIG
  • 200920Z 03003KT 310V090 6000 FEW008 14/10 Q1023 NOSIG
  • 200850Z 05003KT 350V080 6000 FEW005 SCT008 12/10 Q1023 NOSIG

TAF TAF EBBR
Valide du 20 à 12h jusqu'au 21 à 18h UTC


201120Z 2012/2118 08006KT 9999 FEW040
PROB40
TEMPO 2019/2021 VRB15G25KT 3500 SHRA TSRA
PROB30
TEMPO 2102/2106 4500 SHRA
TEMPO 2102/2107 3000 BR
PROB30
TEMPO 2104/2107 1200 BCFG
PROB30
TEMPO 2115/2121 VRB15G25KT 4500 SHRA TSRA
Pas de NOTAMs connus pour ce terrain.



MET'MAP, la Météo Aéronautique d'un coup d'oeil ! - Copyright ORBIFLY Décembre 2007 - Disclaimer

ORBIFLY MET'MAP TEAM :

Programmation & Développement : Alexandra Zaïnal
Conception & Développement : Baudouin d'Aumeries
Co-Programmation & Développement : Marc-Olivier Méhu
Soutien technique & logistique : Manuel Goepfert

Contact : metmap@orbifly.com




SOURCES & CREDITS :

   NOAA